Time;durP1;ratioP1;P1;durP2;ratioP2;P2;SDS_P1;SDS_P2;PMS_P1;PMS_P2;Temp;Humidity;BMP_temperature;BMP_pressure;BME280_temperature;BME280_humidity;BME280_pressure;Samples;Min_cycle;Max_cycle;Signal;HPM_P1;HPM_P2
2022/03/08 00:02:30;;;;;;;;;;;;;;;21.23;19.50;96114.09;10428690;28;1987;-73
2022/03/08 00:07:30;;;;;;;;;;;;;;;21.24;19.62;96107.78;10428192;28;1786;-76
2022/03/08 00:12:30;;;;;;;;;;;;;;;21.21;19.77;96103.03;10436873;28;1818;-73
2022/03/08 00:17:31;;;;;;;;;;;;;;;21.21;19.26;96104.88;10420075;28;1890;-73
2022/03/08 00:22:31;;;;;;;;;;;;;;;21.20;19.61;96101.47;10433744;28;1898;-74
2022/03/08 00:27:32;;;;;;;;;;;;;;;21.20;19.14;96106.75;10441732;28;1766;-73
2022/03/08 00:32:32;;;;;;;;;;;;;;;21.19;19.16;96102.53;10419522;28;1902;-74
2022/03/08 00:37:32;;;;;;;;;;;;;;;21.21;18.91;96091.69;10434967;28;1856;-74
2022/03/08 00:42:33;;;;;;;;;;;;;;;21.19;19.14;96094.59;10438409;28;1975;-74
2022/03/08 00:47:34;;;;;;;;;;;;;;;21.22;19.34;96088.03;10408924;28;1925;-73
2022/03/08 00:52:34;;;;;;;;;;;;;;;21.22;19.52;96090.66;10402326;28;1841;-74
2022/03/08 00:57:35;;;;;;;;;;;;;;;21.19;19.11;96084.06;10407295;28;1726;-74
2022/03/08 01:02:35;;;;;;;;;;;;;;;21.18;19.27;96076.44;10434923;28;1895;-76
2022/03/08 01:07:35;;;;;;;;;;;;;;;21.18;19.49;96066.69;10389928;28;1824;-77
2022/03/08 01:12:35;;;;;;;;;;;;;;;21.17;19.01;96070.38;10415897;28;1892;-76
2022/03/08 01:17:36;;;;;;;;;;;;;;;21.17;18.83;96072.19;10434873;28;1979;-75
2022/03/08 01:22:41;;;;;;;;;;;;;;;21.17;19.01;96067.72;10436932;22;2509;-46
2022/03/08 01:27:42;;;;;;;;;;;;;;;21.17;19.47;96064.28;10416304;28;2240;-43
2022/03/08 01:32:43;;;;;;;;;;;;;;;21.16;18.92;96065.38;10456893;22;3656;-54
2022/03/08 01:37:43;;;;;;;;;;;;;;;21.13;18.78;96055.34;10483906;28;2179;-56
2022/03/08 01:42:46;;;;;;;;;;;;;;;21.15;19.00;96054.03;10479018;28;2043;-55
2022/03/08 01:47:47;;;;;;;;;;;;;;;21.14;18.83;96049.03;10467759;28;1943;-55
2022/03/08 01:52:47;;;;;;;;;;;;;;;21.17;19.05;96051.91;10466551;28;1824;-57
2022/03/08 01:57:48;;;;;;;;;;;;;;;21.15;18.61;96043.47;10442935;28;1917;-55
2022/03/08 02:02:48;;;;;;;;;;;;;;;21.16;18.81;96041.66;10462345;28;1976;-54
2022/03/08 02:07:50;;;;;;;;;;;;;;;21.13;18.52;96039.53;10469379;28;1901;-55
2022/03/08 02:12:50;;;;;;;;;;;;;;;21.13;18.76;96042.97;10481971;28;1890;-57
2022/03/08 02:17:54;;;;;;;;;;;;;;;21.13;18.31;96031.63;10470598;28;1967;-57
2022/03/08 02:22:57;;;;;;;;;;;;;;;21.11;18.74;96024.00;10485694;28;1931;-56
2022/03/08 02:28:06;;;;;;;;;;;;;;;21.12;18.56;96009.78;10484601;28;1892;-56
2022/03/08 02:33:14;;;;;;;;;;;;;;;21.11;18.60;96002.91;10456064;28;1920;-57
2022/03/08 02:38:15;;;;;;;;;;;;;;;21.10;18.37;96006.63;10488446;28;2010;-55
2022/03/08 02:43:15;;;;;;;;;;;;;;;21.11;18.61;95994.19;10472359;28;1930;-58
2022/03/08 02:48:16;;;;;;;;;;;;;;;21.10;18.50;95995.28;10473360;28;1908;-57
2022/03/08 02:53:16;;;;;;;;;;;;;;;21.07;18.23;95996.59;10470686;28;1862;-55
2022/03/08 02:58:17;;;;;;;;;;;;;;;21.08;18.31;95989.50;10486805;28;1896;-55
2022/03/08 03:03:17;;;;;;;;;;;;;;;21.08;18.21;96000.03;10471122;28;1977;-55
2022/03/08 03:08:18;;;;;;;;;;;;;;;21.08;18.26;96000.81;10472122;28;2372;-58
2022/03/08 03:13:18;;;;;;;;;;;;;;;21.08;18.11;95998.97;10471982;28;2031;-56
2022/03/08 03:18:20;;;;;;;;;;;;;;;21.06;18.08;95989.75;10481797;28;1932;-58
2022/03/08 03:23:20;;;;;;;;;;;;;;;21.08;18.15;95981.59;10490336;28;1969;-56
2022/03/08 03:28:22;;;;;;;;;;;;;;;21.05;18.14;95983.69;10481400;28;1861;-56
2022/03/08 03:33:22;;;;;;;;;;;;;;;21.10;18.40;95990.00;10467945;28;1912;-55
2022/03/08 03:38:22;;;;;;;;;;;;;;;21.05;18.00;95978.44;10481435;28;1873;-55
2022/03/08 03:43:23;;;;;;;;;;;;;;;21.05;18.13;95973.16;10489416;28;1948;-56
2022/03/08 03:48:23;;;;;;;;;;;;;;;21.04;18.06;95987.38;10482490;28;1983;-56
2022/03/08 03:53:24;;;;;;;;;;;;;;;21.06;18.51;95981.84;10479345;28;2062;-56
2022/03/08 03:58:24;;;;;;;;;;;;;;;21.04;18.09;95984.75;10458971;28;1972;-57
2022/03/08 04:03:25;;;;;;;;;;;;;;;21.03;17.94;95980.53;10479528;28;2011;-58
2022/03/08 04:08:25;;;;;;;;;;;;;;;21.04;18.17;95981.34;10463749;28;1869;-54
2022/03/08 04:13:25;;;;;;;;;;;;;;;21.04;17.87;95986.63;10467815;28;1931;-56
2022/03/08 04:18:26;;;;;;;;;;;;;;;21.02;18.02;95986.88;10462285;28;2001;-56
2022/03/08 04:23:26;;;;;;;;;;;;;;;21.03;17.94;95995.56;10469410;28;1902;-57
2022/03/08 04:28:27;;;;;;;;;;;;;;;21.03;18.72;96001.63;10483278;28;1888;-57
2022/03/08 04:33:27;;;;;;;;;;;;;;;21.02;17.75;95996.59;10485168;28;1900;-58
2022/03/08 04:38:28;;;;;;;;;;;;;;;21.02;17.91;95986.88;10461368;28;2074;-53
2022/03/08 04:43:29;;;;;;;;;;;;;;;21.01;17.98;95987.09;10470144;28;1973;-56
2022/03/08 04:48:29;;;;;;;;;;;;;;;21.01;17.71;95987.91;10465271;28;1948;-57
2022/03/08 04:53:30;;;;;;;;;;;;;;;21.01;18.03;95982.63;10482934;28;1868;-57
2022/03/08 04:58:32;;;;;;;;;;;;;;;21.01;18.14;95987.91;10478781;28;2003;-55
2022/03/08 05:03:32;;;;;;;;;;;;;;;20.98;17.75;95991.06;10483079;28;1902;-57
2022/03/08 05:08:32;;;;;;;;;;;;;;;21.00;18.10;95986.31;10481180;28;1975;-57
2022/03/08 05:13:33;;;;;;;;;;;;;;;20.99;17.73;95982.13;10466666;28;1928;-57
2022/03/08 05:18:33;;;;;;;;;;;;;;;20.99;18.01;95986.59;10477208;28;2002;-56
2022/03/08 05:23:33;;;;;;;;;;;;;;;20.99;17.83;95983.97;10463841;28;1969;-56
2022/03/08 05:28:34;;;;;;;;;;;;;;;20.99;17.99;95989.22;10464055;28;1923;-56
2022/03/08 05:33:35;;;;;;;;;;;;;;;20.98;17.63;95985.78;10477871;28;2020;-56
2022/03/08 05:38:35;;;;;;;;;;;;;;;20.98;17.60;95985.78;10464343;28;1976;-58
2022/03/08 05:43:35;;;;;;;;;;;;;;;21.00;18.51;95985.50;10475615;28;2023;-57
2022/03/08 05:48:36;;;;;;;;;;;;;;;20.99;17.96;95987.38;10475521;28;1839;-54
2022/03/08 05:53:36;;;;;;;;;;;;;;;21.00;18.04;95990.78;10457014;28;1917;-58
2022/03/08 05:58:37;;;;;;;;;;;;;;;20.98;17.99;95991.06;10457981;28;1941;-59
2022/03/08 06:03:37;;;;;;;;;;;;;;;21.03;18.90;95996.38;10461552;28;2130;-58
2022/03/08 06:08:38;;;;;;;;;;;;;;;21.02;17.92;96001.88;10467181;28;2046;-57
2022/03/08 06:13:38;;;;;;;;;;;;;;;21.00;18.28;96002.13;10460907;28;2007;-57
2022/03/08 06:18:39;;;;;;;;;;;;;;;20.98;17.96;95998.97;10464146;28;2053;-56
2022/03/08 06:23:39;;;;;;;;;;;;;;;20.97;17.78;95997.41;10465444;28;1959;-57
2022/03/08 06:28:39;;;;;;;;;;;;;;;20.98;18.07;96003.44;10460637;28;1971;-58
2022/03/08 06:33:40;;;;;;;;;;;;;;;20.96;17.89;95997.66;10479267;28;2023;-57
2022/03/08 06:38:40;;;;;;;;;;;;;;;21.00;19.00;95999.50;10476704;28;1935;-57
2022/03/08 06:43:40;;;;;;;;;;;;;;;21.05;19.96;96001.34;10468740;28;1963;-58
2022/03/08 06:48:41;;;;;;;;;;;;;;;21.08;20.22;95998.19;10478607;28;2007;-59
2022/03/08 06:53:41;;;;;;;;;;;;;;;21.06;18.94;96005.59;10457932;28;1981;-58
2022/03/08 06:58:41;;;;;;;;;;;;;;;21.06;20.01;96008.97;10483511;28;1955;-58
2022/03/08 07:03:43;;;;;;;;;;;;;;;21.05;20.28;96010.06;10483842;28;1957;-56
2022/03/08 07:08:43;;;;;;;;;;;;;;;21.05;20.01;96012.69;10484745;28;1814;-58
2022/03/08 07:13:43;;;;;;;;;;;;;;;21.05;19.77;96009.25;10476155;28;1714;-58
2022/03/08 07:18:44;;;;;;;;;;;;;;;21.05;19.92;96015.31;10466527;28;1842;-56
2022/03/08 07:23:44;;;;;;;;;;;;;;;21.04;19.84;96011.09;10471220;28;1902;-57
2022/03/08 07:28:44;;;;;;;;;;;;;;;21.03;19.96;96004.28;10458501;28;1835;-55
2022/03/08 07:33:45;;;;;;;;;;;;;;;21.04;20.03;96007.69;10461881;22;2469;-72
2022/03/08 07:38:45;;;;;;;;;;;;;;;21.04;19.93;96003.19;10396220;28;1918;-71
2022/03/08 07:43:45;;;;;;;;;;;;;;;21.04;19.98;96002.44;10390847;28;1914;-71
2022/03/08 07:48:46;;;;;;;;;;;;;;;21.06;19.95;96019.53;10408959;28;1861;-73
2022/03/08 07:53:46;;;;;;;;;;;;;;;21.06;20.21;96016.13;10376984;28;1838;-73
2022/03/08 07:58:46;;;;;;;;;;;;;;;21.02;20.03;96013.22;10391524;28;1732;-72
2022/03/08 08:03:47;;;;;;;;;;;;;;;21.04;20.29;96016.38;10373240;28;1903;-73
2022/03/08 08:08:47;;;;;;;;;;;;;;;21.04;20.61;96019.00;10391149;28;1798;-72
2022/03/08 08:13:52;;;;;;;;;;;;;;;21.02;19.87;96021.13;10390313;28;1793;-72
2022/03/08 08:18:53;;;;;;;;;;;;;;;21.01;20.17;96016.09;10375502;28;1906;-73
2022/03/08 08:23:53;;;;;;;;;;;;;;;21.03;19.89;96017.44;10390051;28;1980;-73
2022/03/08 08:28:53;;;;;;;;;;;;;;;21.02;19.79;96007.16;10407552;28;1755;-73
2022/03/08 08:33:54;;;;;;;;;;;;;;;21.05;19.98;96019.81;10374623;28;1815;-72
2022/03/08 08:38:55;;;;;;;;;;;;;;;21.04;19.82;96019.00;10374066;28;1910;-74
2022/03/08 08:43:55;;;;;;;;;;;;;;;21.06;19.95;96019.53;10407074;28;1810;-72
2022/03/08 08:48:56;;;;;;;;;;;;;;;21.12;19.75;96016.88;10421397;28;2095;-72
2022/03/08 08:53:56;;;;;;;;;;;;;;;21.15;19.88;96024.22;10389391;28;1848;-72
2022/03/08 08:58:56;;;;;;;;;;;;;;;21.15;20.59;96014.50;10388730;28;1971;-72
2022/03/08 09:03:57;;;;;;;;;;;;;;;21.19;19.87;96004.19;10389194;28;1824;-71
2022/03/08 09:08:57;;;;;;;;;;;;;;;21.14;19.96;96014.75;10391182;28;1847;-70
2022/03/08 09:13:58;;;;;;;;;;;;;;;21.18;20.33;96003.41;10373627;28;1793;-72
2022/03/08 09:18:59;;;;;;;;;;;;;;;21.15;19.89;96006.56;10405858;28;1906;-72
2022/03/08 09:23:59;;;;;;;;;;;;;;;21.20;20.21;96005.78;10390459;28;1813;-72
2022/03/08 09:28:59;;;;;;;;;;;;;;;21.24;20.42;96004.16;10407086;28;1722;-72
2022/03/08 09:34:00;;;;;;;;;;;;;;;21.32;21.24;96003.59;10404662;28;1841;-72
2022/03/08 09:39:00;;;;;;;;;;;;;;;21.32;20.92;95991.22;10371251;28;2009;-71
2022/03/08 09:44:00;;;;;;;;;;;;;;;21.34;21.10;95988.28;10405382;28;1976;-72
2022/03/08 09:49:01;;;;;;;;;;;;;;;21.34;20.81;95986.44;10391353;28;1834;-72
2022/03/08 09:54:01;;;;;;;;;;;;;;;21.36;21.01;95994.09;10406331;28;1816;-72
2022/03/08 09:59:02;;;;;;;;;;;;;;;21.36;20.77;95996.72;10388038;28;2013;-72
2022/03/08 10:04:03;;;;;;;;;;;;;;;21.39;21.11;95989.03;10403631;28;1963;-72
2022/03/08 10:09:10;;;;;;;;;;;;;;;21.43;21.05;95986.66;10386448;28;1914;-73
2022/03/08 10:14:11;;;;;;;;;;;;;;;21.43;21.19;95987.44;10386153;28;1755;-74
2022/03/08 10:19:12;;;;;;;;;;;;;;;21.46;21.42;95989.53;10403969;28;1942;-73
2022/03/08 10:24:16;;;;;;;;;;;;;;;21.45;21.32;95977.41;10393131;28;1771;-72
2022/03/08 10:29:34;;;;;;;;;;;;;;;21.45;21.00;95969.50;10395003;28;1730;-72
2022/03/08 10:34:35;;;;;;;;;;;;;;;21.48;21.41;95968.97;10412025;28;1888;-73
2022/03/08 10:39:46;;;;;;;;;;;;;;;21.51;21.19;95978.19;10395442;28;1978;-72
2022/03/08 10:44:47;;;;;;;;;;;;;;;21.51;21.40;95986.09;10395783;28;1847;-73
2022/03/08 10:49:51;;;;;;;;;;;;;;;21.51;21.52;95983.44;10396358;28;2311;-73
2022/03/08 10:54:52;;;;;;;;;;;;;;;21.54;21.29;95973.13;10396568;28;1865;-72
2022/03/08 10:59:52;;;;;;;;;;;;;;;21.55;21.45;95976.56;10392400;28;1973;-73
2022/03/08 11:05:09;;;;;;;;;;;;;;;21.54;21.54;95962.59;10394928;28;1962;-73
2022/03/08 11:10:10;;;;;;;;;;;;;;;21.55;21.67;95969.44;10434423;28;2190;-74
2022/03/08 11:15:13;;;;;;;;;;;;;;;21.53;21.66;95971.56;10410788;28;1760;-73
2022/03/08 11:20:16;;;;;;;;;;;;;;;21.56;21.81;95967.56;10410147;28;2234;-72
2022/03/08 11:25:17;;;;;;;;;;;;;;;21.47;22.08;95974.50;10393739;28;1718;-73
2022/03/08 11:30:19;;;;;;;;;;;;;;;21.47;22.18;95979.78;10381288;28;1857;-73
2022/03/08 11:35:23;;;;;;;;;;;;;;;21.49;22.20;95972.38;10411404;28;1782;-74
2022/03/08 11:40:23;;;;;;;;;;;;;;;21.49;22.22;95956.56;10408240;28;1910;-73
2022/03/08 11:45:25;;;;;;;;;;;;;;;21.51;22.18;95960.50;10437306;28;1770;-73
2022/03/08 11:50:27;;;;;;;;;;;;;;;21.52;22.15;95948.88;10418231;28;1809;-72
2022/03/08 11:55:28;;;;;;;;;;;;;;;21.50;22.13;95951.00;10409375;28;1934;-73
2022/03/08 12:00:29;;;;;;;;;;;;;;;21.50;22.29;95942.31;10423219;28;2013;-71
2022/03/08 12:05:43;;;;;;;;;;;;;;;21.47;22.42;95937.59;10408603;28;1823;-72
2022/03/08 12:10:44;;;;;;;;;;;;;;;21.51;22.08;95938.63;10424767;28;1949;-72
2022/03/08 12:16:11;;;;;;;;;;;;;;;21.52;22.20;95948.09;10424920;28;1974;-72
2022/03/08 12:21:14;;;;;;;;;;;;;;;21.51;22.22;95941.25;10425449;28;1902;-73
2022/03/08 12:26:43;;;;;;;;;;;;;;;21.48;22.26;95933.88;10428253;28;1916;-72
2022/03/08 12:31:57;;;;;;;;;;;;;;;21.47;22.50;95921.78;10419357;28;1993;-72
2022/03/08 12:37:13;;;;;;;;;;;;;;;21.46;22.45;95926.25;10426982;28;1896;-72
2022/03/08 12:42:24;;;;;;;;;;;;;;;21.48;22.58;95928.59;10427198;28;1962;-71
2022/03/08 12:47:24;;;;;;;;;;;;;;;21.48;22.63;95924.13;10418623;28;1900;-71
2022/03/08 12:52:25;;;;;;;;;;;;;;;21.49;22.64;95923.06;10413542;28;1771;-72
2022/03/08 12:57:26;;;;;;;;;;;;;;;21.48;22.50;95920.69;10422243;28;1801;-72
2022/03/08 13:02:26;;;;;;;;;;;;;;;21.48;22.43;95920.69;10370151;28;1958;-72
2022/03/08 13:07:28;;;;;;;;;;;;;;;21.47;22.39;95932.31;10389922;28;1838;-72
2022/03/08 13:12:30;;;;;;;;;;;;;;;21.50;22.39;95937.81;10405922;28;1744;-71
2022/03/08 13:17:31;;;;;;;;;;;;;;;21.49;22.44;95938.91;10419766;28;1861;-72
2022/03/08 13:22:33;;;;;;;;;;;;;;;21.46;22.37;95928.09;10413084;28;1882;-70
2022/03/08 13:27:53;;;;;;;;;;;;;;;21.52;22.36;95940.19;10407156;22;2114;-45
2022/03/08 13:33:09;;;;;;;;;;;;;;;21.53;22.24;95941.75;10436006;28;1759;-47
2022/03/08 13:38:11;;;;;;;;;;;;;;;21.57;22.16;95940.16;10436481;22;2375;-56
2022/03/08 13:43:12;;;;;;;;;;;;;;;21.57;22.41;95945.44;10479393;28;1918;-58
2022/03/08 13:48:14;;;;;;;;;;;;;;;21.56;22.35;95939.34;10465121;28;1837;-59
2022/03/08 13:53:15;;;;;;;;;;;;;;;21.62;22.34;95950.66;10463048;28;1792;-57
2022/03/08 13:58:16;;;;;;;;;;;;;;;21.63;22.08;95954.88;10472096;28;2323;-58
2022/03/08 14:03:19;;;;;;;;;;;;;;;21.60;22.40;95936.94;10464550;28;1971;-56
2022/03/08 14:08:26;;;;;;;;;;;;;;;21.57;22.41;95937.50;10464606;28;1860;-58
2022/03/08 14:13:27;;;;;;;;;;;;;;;21.55;22.36;95943.06;10461494;28;1798;-58
2022/03/08 14:18:27;;;;;;;;;;;;;;;21.52;22.58;95945.44;10464930;28;1861;-56
2022/03/08 14:23:39;;;;;;;;;;;;;;;21.50;22.97;95942.31;10480398;28;1906;-56
2022/03/08 14:28:44;;;;;;;;;;;;;;;21.48;23.20;95928.59;10461694;28;2008;-57
2022/03/08 14:33:56;;;;;;;;;;;;;;;21.49;23.06;95940.75;10463861;28;1723;-54
2022/03/08 14:38:57;;;;;;;;;;;;;;;21.44;23.31;95932.84;10458679;28;1823;-58
2022/03/08 14:43:57;;;;;;;;;;;;;;;21.41;23.17;95930.78;10457785;28;1965;-56
2022/03/08 14:48:58;;;;;;;;;;;;;;;21.40;23.25;95921.28;10460733;28;1816;-56
2022/03/08 14:54:00;;;;;;;;;;;;;;;21.41;23.16;95917.59;10456681;28;1823;-57
2022/03/08 14:59:01;;;;;;;;;;;;;;;21.41;23.01;95918.34;10475268;28;1850;-57
2022/03/08 15:04:02;;;;;;;;;;;;;;;21.41;23.18;95917.59;10463543;28;1902;-58
2022/03/08 15:09:03;;;;;;;;;;;;;;;21.41;22.83;95914.94;10469726;28;1915;-58
2022/03/08 15:14:04;;;;;;;;;;;;;;;21.40;22.76;95910.72;10470909;28;1839;-58
2022/03/08 15:19:04;;;;;;;;;;;;;;;21.41;22.88;95922.88;10477608;28;1884;-56
2022/03/08 15:24:05;;;;;;;;;;;;;;;21.39;22.77;95909.94;10462614;28;1910;-57
2022/03/08 15:29:06;;;;;;;;;;;;;;;21.38;22.88;95912.84;10475980;28;1833;-55
2022/03/08 15:34:06;;;;;;;;;;;;;;;21.37;22.74;95906.03;10470404;28;1855;-58
2022/03/08 15:39:06;;;;;;;;;;;;;;;21.37;22.90;95913.94;10483819;28;2062;-57
2022/03/08 15:44:07;;;;;;;;;;;;;;;21.36;22.71;95907.06;10486924;28;1901;-57
2022/03/08 15:49:07;;;;;;;;;;;;;;;21.35;22.80;95908.91;10480286;28;1821;-56
2022/03/08 15:54:12;;;;;;;;;;;;;;;21.35;22.77;95910.78;10480964;28;1803;-58
2022/03/08 15:59:12;;;;;;;;;;;;;;;21.37;22.46;95913.94;10473686;28;1909;-61
2022/03/08 16:04:12;;;;;;;;;;;;;;;21.41;22.51;95912.31;10475463;28;2029;-55
2022/03/08 16:09:13;;;;;;;;;;;;;;;21.47;22.88;95922.56;10482287;28;2009;-56
2022/03/08 16:14:13;;;;;;;;;;;;;;;21.53;23.00;95934.66;10484949;28;1901;-59
2022/03/08 16:19:13;;;;;;;;;;;;;;;21.56;23.23;95931.44;10463837;28;1973;-56
2022/03/08 16:24:14;;;;;;;;;;;;;;;21.61;23.10;95935.91;10462357;28;1797;-53
2022/03/08 16:29:15;;;;;;;;;;;;;;;21.62;23.10;95935.63;10457405;28;1895;-55
2022/03/08 16:34:15;;;;;;;;;;;;;;;21.59;23.28;95945.94;10461641;28;1732;-55
2022/03/08 16:39:15;;;;;;;;;;;;;;;21.55;23.31;95939.63;10462246;28;1989;-58
2022/03/08 16:44:16;;;;;;;;;;;;;;;21.53;23.55;95947.03;10474385;28;1867;-59
2022/03/08 16:49:16;;;;;;;;;;;;;;;21.51;23.10;95949.16;10466923;28;1819;-56
2022/03/08 16:54:18;;;;;;;;;;;;;;;21.47;23.28;95948.13;10465310;28;1769;-56
2022/03/08 16:59:18;;;;;;;;;;;;;;;21.45;22.93;95956.31;10460679;28;1989;-57
2022/03/08 17:04:19;;;;;;;;;;;;;;;21.45;23.06;95955.53;10464215;28;1993;-58
2022/03/08 17:09:19;;;;;;;;;;;;;;;21.43;22.95;95962.94;10478181;28;1867;-58
2022/03/08 17:14:19;;;;;;;;;;;;;;;21.44;22.82;95959.22;10442038;28;1859;-58
2022/03/08 17:19:20;;;;;;;;;;;;;;;21.41;22.68;95955.28;10478028;28;2118;-57
2022/03/08 17:24:20;;;;;;;;;;;;;;;21.42;22.83;95967.41;10471864;28;2012;-58
2022/03/08 17:29:21;;;;;;;;;;;;;;;21.48;22.67;95962.88;10479602;28;1828;-57
2022/03/08 17:34:21;;;;;;;;;;;;;;;21.54;22.62;95967.06;10480205;28;1746;-58
2022/03/08 17:39:21;;;;;;;;;;;;;;;21.61;22.86;95965.72;10466977;28;1969;-58
2022/03/08 17:44:22;;;;;;;;;;;;;;;21.62;22.97;95961.19;10479025;28;1831;-58
2022/03/08 17:49:22;;;;;;;;;;;;;;;21.68;22.92;95970.66;10470106;28;1820;-57
2022/03/08 17:54:25;;;;;;;;;;;;;;;21.68;23.16;95973.28;10479081;28;1820;-57
2022/03/08 17:59:25;;;;;;;;;;;;;;;21.69;22.85;95988.06;10461635;28;1980;-59
2022/03/08 18:04:25;;;;;;;;;;;;;;;21.67;23.07;95988.34;10464268;28;1795;-56
2022/03/08 18:09:26;;;;;;;;;;;;;;;21.62;22.93;95990.22;10476679;28;2040;-52
2022/03/08 18:14:28;;;;;;;;;;;;;;;21.60;22.56;96006.34;10462672;28;2177;-51
2022/03/08 18:19:29;;;;;;;;;;;;;;;21.58;22.87;95999.75;10468491;28;2429;-54
2022/03/08 18:24:30;;;;;;;;;;;;;;;21.60;22.93;95990.50;10442954;28;1901;-56
2022/03/08 18:29:30;;;;;;;;;;;;;;;21.64;22.63;95996.00;10470179;28;1837;-55
2022/03/08 18:34:31;;;;;;;;;;;;;;;21.63;22.79;96000.53;10456852;28;1910;-57
2022/03/08 18:39:31;;;;;;;;;;;;;;;21.66;23.08;96002.59;10459080;28;1975;-54
2022/03/08 18:44:32;;;;;;;;;;;;;;;21.63;23.10;96003.16;10474417;28;1506;-55
2022/03/08 18:49:32;;;;;;;;;;;;;;;21.63;23.00;96005.81;10479131;28;1593;-57
2022/03/08 18:54:32;;;;;;;;;;;;;;;21.67;22.88;96011.31;10483576;28;1516;-55
2022/03/08 18:59:33;;;;;;;;;;;;;;;21.64;22.97;96022.41;10486883;28;1933;-58
2022/03/08 19:04:33;;;;;;;;;;;;;;;21.60;23.05;96022.16;10466345;28;1595;-58
2022/03/08 19:09:34;;;;;;;;;;;;;;;21.61;22.90;96023.75;10479412;28;1888;-56
2022/03/08 19:14:34;;;;;;;;;;;;;;;21.61;22.88;96033.50;10460382;28;1821;-56
2022/03/08 19:19:34;;;;;;;;;;;;;;;21.59;22.84;96048.81;10464966;28;2092;-55
2022/03/08 19:24:35;;;;;;;;;;;;;;;21.62;22.92;96045.63;10464985;28;1816;-58
2022/03/08 19:29:35;;;;;;;;;;;;;;;21.61;23.03;96044.06;10484865;28;1828;-55
2022/03/08 19:34:36;;;;;;;;;;;;;;;21.59;22.96;96036.44;10469560;28;1972;-56
2022/03/08 19:39:38;;;;;;;;;;;;;;;21.63;22.86;96039.31;10470607;28;1985;-57
2022/03/08 19:44:39;;;;;;;;;;;;;;;21.63;23.08;96044.56;10462519;28;2216;-57
2022/03/08 19:49:39;;;;;;;;;;;;;;;21.61;23.00;96044.06;10468566;28;1851;-55
2022/03/08 19:54:39;;;;;;;;;;;;;;;21.59;22.88;96035.63;10480375;28;1816;-55
2022/03/08 19:59:40;;;;;;;;;;;;;;;21.56;22.72;96036.16;10462483;28;1910;-57
2022/03/08 20:04:41;;;;;;;;;;;;;;;21.54;22.78;96036.44;10478579;28;1816;-55
2022/03/08 20:09:41;;;;;;;;;;;;;;;21.52;22.75;96035.94;10474825;22;2171;-74
2022/03/08 20:14:42;;;;;;;;;;;;;;;21.52;22.72;96053.59;10432947;28;1916;-73
2022/03/08 20:19:44;;;;;;;;;;;;;;;21.47;22.66;96043.09;10369421;28;1917;-74
2022/03/08 20:24:44;;;;;;;;;;;;;;;21.41;22.74;96052.09;10408915;28;1901;-72
2022/03/08 20:29:44;;;;;;;;;;;;;;;21.37;22.56;96051.06;10381442;28;1815;-73
2022/03/08 20:34:45;;;;;;;;;;;;;;;21.39;22.58;96046.28;10375105;28;1861;-73
2022/03/08 20:39:47;;;;;;;;;;;;;;;21.37;22.38;96045.78;10384818;28;1910;-72
2022/03/08 20:44:48;;;;;;;;;;;;;;;21.34;22.21;96049.75;10388413;28;1799;-73
2022/03/08 20:49:48;;;;;;;;;;;;;;;21.33;22.34;96053.41;10405172;28;1880;-70
2022/03/08 20:54:48;;;;;;;;;;;;;;;21.33;22.33;96052.66;10384161;28;1959;-71
2022/03/08 20:59:49;;;;;;;;;;;;;;;21.34;22.29;96065.56;10391709;28;1966;-72
2022/03/08 21:04:50;;;;;;;;;;;;;;;21.35;22.57;96063.72;10386376;28;1879;-70
2022/03/08 21:09:51;;;;;;;;;;;;;;;21.37;22.55;96074.78;10397594;28;1915;-71
2022/03/08 21:14:51;;;;;;;;;;;;;;;21.38;22.61;96069.22;10388266;28;1838;-72
2022/03/08 21:19:52;;;;;;;;;;;;;;;21.35;22.68;96082.94;10403241;28;1918;-72
2022/03/08 21:24:52;;;;;;;;;;;;;;;21.37;22.63;96086.09;10385808;28;1870;-73
2022/03/08 21:29:52;;;;;;;;;;;;;;;21.33;22.51;96082.44;10397709;28;1865;-73
2022/03/08 21:34:53;;;;;;;;;;;;;;;21.31;22.74;96081.13;10373894;28;1884;-72
2022/03/08 21:39:53;;;;;;;;;;;;;;;21.29;22.64;96077.97;10383689;28;1977;-72
2022/03/08 21:44:54;;;;;;;;;;;;;;;21.28;22.64;96071.91;10368990;28;1949;-72
2022/03/08 21:49:54;;;;;;;;;;;;;;;21.28;22.55;96086.94;10388077;28;1855;-71
2022/03/08 21:54:54;;;;;;;;;;;;;;;21.28;22.47;96093.00;10379155;28;1868;-72
2022/03/08 21:59:55;;;;;;;;;;;;;;;21.27;22.78;96085.38;10392143;28;1946;-73
2022/03/08 22:04:55;;;;;;;;;;;;;;;21.25;22.36;96076.91;10388762;28;1942;-72
2022/03/08 22:09:56;;;;;;;;;;;;;;;21.21;22.65;96076.69;10407256;28;1857;-72
2022/03/08 22:14:56;;;;;;;;;;;;;;;21.20;22.58;96088.28;10396348;28;1855;-73
2022/03/08 22:19:56;;;;;;;;;;;;;;;21.23;22.51;96089.56;10385634;28;1989;-72
2022/03/08 22:25:02;;;;;;;;;;;;;;;21.23;22.43;96092.22;10414087;28;1925;-73
2022/03/08 22:30:05;;;;;;;;;;;;;;;21.23;22.39;96097.50;10410598;28;1857;-72
2022/03/08 22:35:06;;;;;;;;;;;;;;;21.25;22.36;96101.44;10379013;28;1802;-72
2022/03/08 22:40:07;;;;;;;;;;;;;;;21.23;22.21;96105.41;10376579;28;1981;-73
2022/03/08 22:45:08;;;;;;;;;;;;;;;21.19;22.27;96105.16;10389651;28;1728;-72
2022/03/08 22:55:27;;;;;;;;;;;;;;;21.20;22.38;96100.69;10379226;28;1813;-72
2022/03/08 23:00:32;;;;;;;;;;;;;;;21.21;22.38;96100.41;10396702;28;1916;-72
2022/03/08 23:05:33;;;;;;;;;;;;;;;21.20;22.12;96103.31;10388110;28;1847;-72
2022/03/08 23:10:33;;;;;;;;;;;;;;;21.22;22.17;96095.94;10394054;28;1859;-73
2022/03/08 23:15:35;;;;;;;;;;;;;;;21.18;22.30;96097.53;10399432;28;1836;-73
2022/03/08 23:20:35;;;;;;;;;;;;;;;21.19;22.23;96091.19;10400985;28;1954;-73
2022/03/08 23:25:36;;;;;;;;;;;;;;;21.20;21.95;96093.56;10388973;28;1782;-73
2022/03/08 23:30:36;;;;;;;;;;;;;;;21.19;22.20;96085.91;10394072;28;1890;-72
2022/03/08 23:35:37;;;;;;;;;;;;;;;21.21;22.09;96087.22;10378796;28;1797;-73
2022/03/08 23:40:37;;;;;;;;;;;;;;;21.22;22.02;96088.81;10395349;28;1906;-72
2022/03/08 23:45:38;;;;;;;;;;;;;;;21.22;21.70;96082.75;10388675;28;1891;-72
2022/03/08 23:50:38;;;;;;;;;;;;;;;21.22;21.75;96083.53;10406995;28;1830;-72
2022/03/08 23:55:41;;;;;;;;;;;;;;;21.20;21.99;96085.66;10378308;28;1673;-72
